createdAt,value
2023-04-11T00:01:24.550Z,65.63
2023-04-11T00:03:26.249Z,65.08
2023-04-11T00:05:28.056Z,65.35
2023-04-11T00:07:29.647Z,66.15
2023-04-11T00:09:31.359Z,66.36
2023-04-11T00:11:33.115Z,66.93
2023-04-11T00:13:34.606Z,66.73
2023-04-11T00:15:36.282Z,66.59
2023-04-11T00:17:38.006Z,67.26
2023-04-11T00:19:39.583Z,67.56
2023-04-11T00:21:41.053Z,66.76
2023-04-11T00:23:42.544Z,66.96
2023-04-11T00:25:44.068Z,66.81
2023-04-11T00:27:45.682Z,66.97
2023-04-11T00:29:47.262Z,67.70
2023-04-11T00:31:48.824Z,67.36
2023-04-11T00:33:50.375Z,67.19
2023-04-11T00:35:52.610Z,66.81
2023-04-11T00:37:56.312Z,66.06
2023-04-11T00:39:57.911Z,65.87
2023-04-11T00:42:06.715Z,66.53
2023-04-11T00:44:08.715Z,66.16
2023-04-11T00:46:10.397Z,66.21
2023-04-11T00:48:11.963Z,66.36
2023-04-11T00:50:14.226Z,67.39
2023-04-11T00:52:16.073Z,67.22
2023-04-11T00:54:18.517Z,66.54
2023-04-11T00:56:20.040Z,66.84
2023-04-11T00:58:21.620Z,66.49
2023-04-11T01:00:23.333Z,66.86
2023-04-11T01:02:25.195Z,66.52
2023-04-11T01:04:26.775Z,66.60
2023-04-11T01:06:30.866Z,66.83
2023-04-11T01:08:32.339Z,66.08
2023-04-11T01:10:33.877Z,66.27
2023-04-11T01:12:35.547Z,66.89
2023-04-11T01:14:37.056Z,66.93
2023-04-11T01:16:38.593Z,67.17
2023-04-11T01:18:40.069Z,66.81
2023-04-11T01:20:41.626Z,66.62
2023-04-11T01:22:43.162Z,66.77
2023-04-11T01:24:44.605Z,67.12
2023-04-11T01:26:46.138Z,66.96
2023-04-11T01:28:47.657Z,66.81
2023-04-11T01:30:49.237Z,67.58
2023-04-11T01:32:50.942Z,67.58
2023-04-11T01:34:52.628Z,67.40
2023-04-11T01:36:54.416Z,67.70
2023-04-11T01:38:56.393Z,67.75
2023-04-11T01:40:58.032Z,67.97
2023-04-11T01:42:59.890Z,67.71
2023-04-11T01:45:01.585Z,67.30
2023-04-11T01:47:03.359Z,68.07
2023-04-11T01:49:04.963Z,68.01
2023-04-11T01:51:07.496Z,67.15
2023-04-11T01:53:08.970Z,67.35
2023-04-11T01:55:10.510Z,67.19
2023-04-11T01:57:12.004Z,67.78
2023-04-11T01:59:13.557Z,67.77
2023-04-11T02:01:17.635Z,67.65
2023-04-11T02:03:21.032Z,68.16
2023-04-11T02:05:23.810Z,67.87
2023-04-11T02:07:25.303Z,67.80
2023-04-11T02:09:26.784Z,67.24
2023-04-11T02:11:28.307Z,67.70
2023-04-11T02:13:29.798Z,67.53
2023-04-11T02:15:31.328Z,68.26
2023-04-11T02:17:32.873Z,67.55
2023-04-11T02:19:34.554Z,67.44
2023-04-11T02:21:36.158Z,67.81
2023-04-11T02:23:37.788Z,68.40
2023-04-11T02:25:39.376Z,67.93
2023-04-11T02:27:41.005Z,68.10
2023-04-11T02:29:42.489Z,68.00
2023-04-11T02:31:44.139Z,67.91
2023-04-11T02:33:45.677Z,68.47
2023-04-11T02:35:47.243Z,68.46
2023-04-11T02:37:48.770Z,68.39
2023-04-11T02:39:50.356Z,67.83
2023-04-11T02:41:51.812Z,68.36
2023-04-11T02:43:53.942Z,68.42
2023-04-11T02:46:05.547Z,67.97
2023-04-11T02:48:14.010Z,68.22
2023-04-11T02:50:15.623Z,68.39
2023-04-11T02:52:18.201Z,67.67
2023-04-11T02:54:19.667Z,67.40
2023-04-11T02:56:21.582Z,67.09
2023-04-11T02:58:26.025Z,67.37
2023-04-11T03:00:27.556Z,67.56
2023-04-11T03:02:30.519Z,67.00
2023-04-11T03:04:32.291Z,67.24
2023-04-11T03:06:33.858Z,66.76
2023-04-11T03:08:39.249Z,67.04
2023-04-11T03:10:40.871Z,67.36
2023-04-11T03:12:42.467Z,67.92
2023-04-11T03:14:44.007Z,66.82
2023-04-11T03:16:45.712Z,66.98
2023-04-11T03:18:47.206Z,66.43
2023-04-11T03:20:49.032Z,66.06
2023-04-11T03:22:50.581Z,66.62
2023-04-11T03:24:52.102Z,66.13
2023-04-11T03:26:53.709Z,66.39
2023-04-11T03:28:55.459Z,66.95
2023-04-11T03:30:57.274Z,66.88
2023-04-11T03:33:01.181Z,66.13
2023-04-11T03:35:02.825Z,66.55
2023-04-11T03:37:04.996Z,66.86
2023-04-11T03:39:06.487Z,66.96
2023-04-11T03:41:08.029Z,67.64
2023-04-11T03:43:09.533Z,67.22
2023-04-11T03:45:11.022Z,67.16
2023-04-11T03:47:12.538Z,66.84
2023-04-11T03:49:14.036Z,66.73
2023-04-11T03:51:15.588Z,67.09
2023-04-11T03:53:17.104Z,67.45
2023-04-11T03:55:18.664Z,67.30
2023-04-11T03:57:20.142Z,66.37
2023-04-11T03:59:21.776Z,66.65
2023-04-11T04:01:23.548Z,66.52
2023-04-11T04:03:25.226Z,66.62
2023-04-11T04:05:26.816Z,66.92
2023-04-11T04:07:28.486Z,67.33
2023-04-11T04:09:30.002Z,67.00
2023-04-11T04:11:31.550Z,67.60
2023-04-11T04:13:33.282Z,67.87
2023-04-11T04:15:34.867Z,68.23
2023-04-11T04:17:36.372Z,67.82
2023-04-11T04:19:37.909Z,68.02
2023-04-11T04:21:39.387Z,67.99
2023-04-11T04:23:52.939Z,68.75
2023-04-11T04:25:58.080Z,68.20
2023-04-11T04:28:01.029Z,68.19
2023-04-11T04:30:04.722Z,67.71
2023-04-11T04:32:11.344Z,67.67
2023-04-11T04:34:12.883Z,67.72
2023-04-11T04:36:17.984Z,68.09
2023-04-11T04:38:19.626Z,68.08
2023-04-11T04:40:21.460Z,68.67
2023-04-11T04:42:23.874Z,68.57
2023-04-11T04:44:25.651Z,68.63
2023-04-11T04:46:27.157Z,68.58
2023-04-11T04:48:28.603Z,68.60
2023-04-11T04:50:30.232Z,67.91
2023-04-11T04:52:31.788Z,67.31
2023-04-11T04:54:33.285Z,68.15
2023-04-11T04:56:34.925Z,68.50
2023-04-11T04:58:36.583Z,68.23
2023-04-11T05:00:38.061Z,68.50
2023-04-11T05:02:40.714Z,67.68
2023-04-11T05:04:42.598Z,67.48
2023-04-11T05:06:44.210Z,67.74
2023-04-11T05:08:46.504Z,67.46
2023-04-11T05:10:48.049Z,67.51
2023-04-11T05:12:49.580Z,67.52
2023-04-11T05:14:51.180Z,67.56
2023-04-11T05:16:52.797Z,67.81
2023-04-11T05:18:54.351Z,68.17
2023-04-11T05:20:56.012Z,68.17
2023-04-11T05:22:57.532Z,67.72
2023-04-11T05:24:59.034Z,67.88
2023-04-11T05:27:00.674Z,68.21
2023-04-11T05:29:02.192Z,68.50
2023-04-11T05:31:03.896Z,68.45
2023-04-11T05:33:05.608Z,68.08
2023-04-11T05:35:07.413Z,67.90
2023-04-11T05:37:09.245Z,67.33
2023-04-11T05:39:11.039Z,68.22
2023-04-11T05:41:12.815Z,67.04
2023-04-11T05:43:15.291Z,67.20
2023-04-11T05:45:16.813Z,67.01
2023-04-11T05:47:18.319Z,66.92
2023-04-11T05:49:19.902Z,67.25
2023-04-11T05:51:21.421Z,66.55
2023-04-11T05:53:22.919Z,66.96
2023-04-11T05:55:24.413Z,67.11
2023-04-11T05:57:25.867Z,66.94
2023-04-11T05:59:28.953Z,66.52
2023-04-11T06:01:30.529Z,66.11
2023-04-11T06:03:32.248Z,65.82
2023-04-11T06:05:34.866Z,65.57
2023-04-11T06:07:36.293Z,65.47
2023-04-11T06:09:39.297Z,64.58
2023-04-11T06:11:40.772Z,65.42
2023-04-11T06:13:42.307Z,65.36
2023-04-11T06:15:43.821Z,65.25
2023-04-11T06:17:45.553Z,65.60
2023-04-11T06:19:47.057Z,64.39
2023-04-11T06:21:48.538Z,64.50
2023-04-11T06:23:50.199Z,64.50
2023-04-11T06:25:51.798Z,64.74
2023-04-11T06:27:53.292Z,64.37
2023-04-11T06:29:54.785Z,64.85
2023-04-11T06:31:56.267Z,65.09
2023-04-11T06:33:58.083Z,64.89
2023-04-11T06:35:59.829Z,64.95
2023-04-11T06:38:01.318Z,65.02
2023-04-11T06:40:05.366Z,64.40
2023-04-11T06:42:06.990Z,64.30
2023-04-11T06:44:08.527Z,63.69
2023-04-11T06:46:10.430Z,63.76
2023-04-11T06:48:12.850Z,63.71
2023-04-11T06:50:14.526Z,64.17
2023-04-11T06:52:16.096Z,63.68
2023-04-11T06:54:19.354Z,62.45
2023-04-11T06:56:21.202Z,62.53
2023-04-11T06:58:22.769Z,63.41
2023-04-11T07:00:24.569Z,62.15
2023-04-11T07:02:26.492Z,62.15
2023-04-11T07:04:28.322Z,62.21
2023-04-11T07:06:30.531Z,63.15
2023-04-11T07:08:32.008Z,63.74
2023-04-11T07:10:33.642Z,62.89
2023-04-11T07:12:35.118Z,62.64
2023-04-11T07:14:36.565Z,62.50
2023-04-11T07:16:38.340Z,62.98
2023-04-11T07:18:39.917Z,63.31
2023-04-11T07:20:41.524Z,62.07
2023-04-11T07:22:43.394Z,62.20
2023-04-11T07:24:46.522Z,63.47
2023-04-11T07:26:51.146Z,63.06
2023-04-11T07:28:52.691Z,62.77
2023-04-11T07:30:54.162Z,62.38
2023-04-11T07:32:56.123Z,61.89
2023-04-11T07:34:57.675Z,61.77
2023-04-11T07:37:01.099Z,61.33
2023-04-11T07:39:04.502Z,61.33
2023-04-11T07:41:06.322Z,60.94
2023-04-11T07:43:07.837Z,60.41
2023-04-11T07:45:09.556Z,60.32
2023-04-11T07:47:11.197Z,60.04
2023-04-11T07:49:12.665Z,59.91
2023-04-11T07:51:14.137Z,60.81
2023-04-11T07:53:15.692Z,60.78
2023-04-11T07:55:17.352Z,61.02
2023-04-11T07:57:18.854Z,61.51
2023-04-11T07:59:20.378Z,61.64
2023-04-11T08:01:22.695Z,61.00
2023-04-11T08:03:24.636Z,59.91
2023-04-11T08:05:27.697Z,60.30
2023-04-11T08:07:29.184Z,59.17
2023-04-11T08:09:30.641Z,59.07
2023-04-11T08:11:32.299Z,59.60
2023-04-11T08:13:33.799Z,58.73
2023-04-11T08:15:36.971Z,58.51
2023-04-11T08:17:39.160Z,59.29
2023-04-11T08:19:40.960Z,58.39
2023-04-11T08:21:42.413Z,57.79
2023-04-11T08:23:43.930Z,58.33
2023-04-11T08:25:45.589Z,57.58
2023-04-11T08:27:47.030Z,57.07
2023-04-11T08:29:48.507Z,58.07
2023-04-11T08:31:50.097Z,59.18
2023-04-11T08:33:51.631Z,58.15
2023-04-11T08:35:53.569Z,58.70
2023-04-11T08:37:55.080Z,59.15
2023-04-11T08:39:57.061Z,59.96
2023-04-11T08:41:59.783Z,59.27
2023-04-11T08:44:01.536Z,58.16
2023-04-11T08:46:06.070Z,56.89
2023-04-11T08:48:08.257Z,57.78
2023-04-11T08:50:10.212Z,59.57
2023-04-11T08:52:11.670Z,59.79
2023-04-11T08:54:13.282Z,60.01
2023-04-11T08:56:16.325Z,59.58
2023-04-11T08:58:17.925Z,58.12
2023-04-11T09:00:23.481Z,57.80
2023-04-11T09:02:25.159Z,58.48
2023-04-11T09:04:28.681Z,57.67
2023-04-11T09:06:31.016Z,56.86
2023-04-11T09:08:37.994Z,56.11
2023-04-11T09:10:39.929Z,56.52
2023-04-11T09:12:41.423Z,56.46
2023-04-11T09:14:43.183Z,55.47
2023-04-11T09:17:00.832Z,54.45
2023-04-11T09:19:02.392Z,54.57
2023-04-11T09:21:04.762Z,53.99
2023-04-11T09:23:06.335Z,53.72
2023-04-11T09:25:07.995Z,53.61
2023-04-11T09:27:13.655Z,52.46
2023-04-11T09:29:36.123Z,52.12
2023-04-11T09:31:41.138Z,51.50
2023-04-11T09:33:55.433Z,51.97
2023-04-11T09:35:57.344Z,52.20
2023-04-11T09:37:59.183Z,55.32
2023-04-11T09:40:00.960Z,56.09
2023-04-11T09:42:03.329Z,55.33
2023-04-11T09:44:05.352Z,55.54
2023-04-11T09:46:10.324Z,55.48
2023-04-11T09:48:11.918Z,54.51
2023-04-11T09:50:13.541Z,55.13
2023-04-11T09:52:15.070Z,54.97
2023-04-11T09:54:16.632Z,54.10
2023-04-11T09:56:18.157Z,54.26
2023-04-11T09:58:19.627Z,54.77
2023-04-11T10:00:22.152Z,55.11
2023-04-11T10:02:23.698Z,54.83
2023-04-11T10:04:28.041Z,53.34
2023-04-11T10:06:34.399Z,53.07
2023-04-11T10:08:37.126Z,51.61
2023-04-11T10:10:38.627Z,50.91
2023-04-11T10:12:40.076Z,51.28
2023-04-11T10:14:41.826Z,52.86
2023-04-11T10:17:03.392Z,53.35
2023-04-11T10:19:04.841Z,52.04
2023-04-11T10:21:12.285Z,51.30
2023-04-11T10:23:14.101Z,50.35
2023-04-11T10:25:19.219Z,50.14
2023-04-11T10:27:40.665Z,50.27
2023-04-11T10:29:51.150Z,50.68
2023-04-11T10:32:08.595Z,50.96
2023-04-11T10:34:14.540Z,51.35
2023-04-11T10:36:16.207Z,50.55
2023-04-11T10:38:36.373Z,50.11
2023-04-11T10:40:37.858Z,48.36
2023-04-11T10:42:39.943Z,47.81
2023-04-11T10:44:41.473Z,48.62
2023-04-11T10:46:54.038Z,48.86
2023-04-11T10:48:56.765Z,48.70
2023-04-11T10:50:58.292Z,48.38
2023-04-11T10:53:03.499Z,47.92
2023-04-11T10:55:14.737Z,47.32
2023-04-11T10:57:16.373Z,48.86
2023-04-11T10:59:34.386Z,48.64
2023-04-11T11:03:54.847Z,47.82
2023-04-11T11:06:02.378Z,46.10
2023-04-11T11:08:03.843Z,46.30
2023-04-11T11:10:05.603Z,46.82
2023-04-11T11:12:11.129Z,47.17
2023-04-11T11:14:12.639Z,47.47
2023-04-11T11:16:18.625Z,47.37
2023-04-11T11:18:20.120Z,46.82
2023-04-11T11:20:21.805Z,48.63
2023-04-11T11:22:26.138Z,49.05
2023-04-11T11:24:27.751Z,48.70
2023-04-11T11:26:41.893Z,49.03
2023-04-11T11:28:47.234Z,49.88
2023-04-11T11:30:55.833Z,49.06
2023-04-11T11:32:57.536Z,48.68
2023-04-11T11:34:59.020Z,48.63
2023-04-11T11:37:01.872Z,48.19
2023-04-11T11:39:05.415Z,47.45
2023-04-11T11:41:06.956Z,46.29
2023-04-11T11:43:08.714Z,45.75
2023-04-11T11:45:16.788Z,44.34
2023-04-11T11:47:18.383Z,44.31
2023-04-11T11:49:19.854Z,43.87
2023-04-11T11:51:21.333Z,44.05
2023-04-11T11:53:22.838Z,43.57
2023-04-11T11:55:24.608Z,43.82
2023-04-11T11:57:26.162Z,43.18
2023-04-11T11:59:28.108Z,44.22
2023-04-11T12:01:29.598Z,44.79
2023-04-11T12:03:31.201Z,44.21
2023-04-11T12:05:33.602Z,43.11
2023-04-11T12:07:36.841Z,42.91
2023-04-11T12:09:38.356Z,42.91
2023-04-11T12:11:40.521Z,43.11
2023-04-11T12:13:42.075Z,42.26
2023-04-11T12:15:43.918Z,42.46
2023-04-11T12:17:49.827Z,42.12
2023-04-11T12:19:55.212Z,41.99
2023-04-11T12:21:56.628Z,42.73
2023-04-11T12:23:58.528Z,42.72
2023-04-11T12:26:00.767Z,43.22
2023-04-11T12:28:02.362Z,43.30
2023-04-11T12:30:06.934Z,42.99
2023-04-11T12:32:08.474Z,43.27
2023-04-11T12:34:09.987Z,43.00
2023-04-11T12:36:11.970Z,42.46
2023-04-11T12:38:16.621Z,42.72
2023-04-11T12:40:19.589Z,43.16
2023-04-11T12:42:23.938Z,43.73
2023-04-11T12:44:28.354Z,43.55
2023-04-11T12:46:30.201Z,42.90
2023-04-11T12:48:31.758Z,42.39
2023-04-11T12:50:33.260Z,43.05
2023-04-11T12:52:34.974Z,42.79
2023-04-11T12:54:36.664Z,42.86
2023-04-11T12:56:38.494Z,42.91
2023-04-11T12:58:40.062Z,42.81
2023-04-11T13:00:41.639Z,42.59
2023-04-11T13:02:45.270Z,42.34
2023-04-11T13:04:53.099Z,42.60
2023-04-11T13:06:54.950Z,42.39
2023-04-11T13:08:59.462Z,43.16
2023-04-11T13:11:01.012Z,43.41
2023-04-11T13:13:11.848Z,43.58
2023-04-11T13:15:19.357Z,44.42
2023-04-11T13:17:20.974Z,44.45
2023-04-11T13:19:22.813Z,43.76
2023-04-11T13:21:24.881Z,43.53
2023-04-11T13:23:26.329Z,44.36
2023-04-11T13:25:27.899Z,44.10
2023-04-11T13:27:29.471Z,44.19
2023-04-11T13:29:31.063Z,43.78
2023-04-11T13:31:32.684Z,43.31
2023-04-11T13:33:34.230Z,43.82
2023-04-11T13:35:35.706Z,44.51
2023-04-11T13:37:37.151Z,44.57
2023-04-11T13:39:38.642Z,45.17
2023-04-11T13:41:40.117Z,45.21
2023-04-11T13:43:41.729Z,45.16
2023-04-11T13:45:43.398Z,44.64
2023-04-11T13:47:45.123Z,44.50
2023-04-11T13:49:46.973Z,45.31
2023-04-11T13:51:48.766Z,45.76
2023-04-11T13:53:50.306Z,45.79
2023-04-11T13:55:51.804Z,45.56
2023-04-11T13:57:53.260Z,45.65
2023-04-11T13:59:54.782Z,45.82
2023-04-11T14:01:56.371Z,45.77
2023-04-11T14:03:58.213Z,45.99
2023-04-11T14:06:00.413Z,45.14
2023-04-11T14:08:01.925Z,45.44
2023-04-11T14:10:03.484Z,45.18
2023-04-11T14:12:05.053Z,44.94
2023-04-11T14:14:06.575Z,45.80
2023-04-11T14:16:09.516Z,46.53
2023-04-11T14:18:11.257Z,46.37
2023-04-11T14:20:12.786Z,46.13
2023-04-11T14:22:14.535Z,45.78
2023-04-11T14:24:16.117Z,44.99
2023-04-11T14:26:17.763Z,44.56
2023-04-11T14:28:19.615Z,45.11
2023-04-11T14:30:21.536Z,45.50
2023-04-11T14:32:23.127Z,44.75
2023-04-11T14:34:24.587Z,45.72
2023-04-11T14:36:28.141Z,45.40
2023-04-11T14:38:29.791Z,46.09
2023-04-11T14:40:31.310Z,45.86
2023-04-11T14:42:32.883Z,46.04
2023-04-11T14:44:35.579Z,47.02
2023-04-11T14:46:37.277Z,47.15
2023-04-11T14:48:38.888Z,46.67
2023-04-11T14:50:40.405Z,46.23
2023-04-11T14:52:42.012Z,45.52
2023-04-11T14:54:43.598Z,45.43
2023-04-11T14:56:45.073Z,45.45
2023-04-11T14:58:46.672Z,45.42
2023-04-11T15:00:48.210Z,46.37
2023-04-11T15:02:51.959Z,45.89
2023-04-11T15:04:53.836Z,45.38
2023-04-11T15:06:55.395Z,45.53
2023-04-11T15:08:57.017Z,45.71
2023-04-11T15:10:58.582Z,46.30
2023-04-11T15:13:00.139Z,46.04
2023-04-11T15:15:01.696Z,46.19
2023-04-11T15:17:03.269Z,45.56
2023-04-11T15:19:04.741Z,45.90
2023-04-11T15:21:06.531Z,45.99
2023-04-11T15:23:08.074Z,46.81
2023-04-11T15:25:11.580Z,47.00
2023-04-11T15:27:13.168Z,46.69
2023-04-11T15:29:15.900Z,46.72
2023-04-11T15:31:25.427Z,46.89
2023-04-11T15:33:27.810Z,46.97
2023-04-11T15:35:29.277Z,46.51
2023-04-11T15:37:30.925Z,46.83
2023-04-11T15:39:32.391Z,46.54
2023-04-11T15:41:34.399Z,46.55
2023-04-11T15:43:35.986Z,46.23
2023-04-11T15:45:38.158Z,46.29
2023-04-11T15:47:39.681Z,45.87
2023-04-11T15:49:41.412Z,46.84
2023-04-11T15:51:44.602Z,47.73
2023-04-11T15:53:46.158Z,46.79
2023-04-11T15:55:47.766Z,46.99
2023-04-11T15:57:49.712Z,46.58
2023-04-11T15:59:51.265Z,46.97
2023-04-11T16:01:52.846Z,47.24
2023-04-11T16:03:54.629Z,47.50
2023-04-11T16:05:56.266Z,47.87
2023-04-11T16:07:57.810Z,47.82
2023-04-11T16:09:59.335Z,47.80
2023-04-11T16:12:01.480Z,48.21
2023-04-11T16:14:03.544Z,48.42
2023-04-11T16:16:05.442Z,48.10
2023-04-11T16:18:07.254Z,48.48
2023-04-11T16:20:12.136Z,48.15
2023-04-11T16:22:13.826Z,48.71
2023-04-11T16:24:15.342Z,48.83
2023-04-11T16:26:16.902Z,48.70
2023-04-11T16:28:18.407Z,48.66
2023-04-11T16:30:19.961Z,48.95
2023-04-11T16:32:21.761Z,49.43
2023-04-11T16:34:24.007Z,49.20
2023-04-11T16:36:27.361Z,49.01
2023-04-11T16:38:28.798Z,48.97
2023-04-11T16:40:31.875Z,48.88
2023-04-11T16:42:33.403Z,48.77
2023-04-11T16:44:34.837Z,48.85
2023-04-11T16:46:36.440Z,48.72
2023-04-11T16:48:38.028Z,48.87
2023-04-11T16:50:39.970Z,49.02
2023-04-11T16:52:41.563Z,48.97
2023-04-11T16:54:43.150Z,49.17
2023-04-11T16:56:44.634Z,49.44
2023-04-11T16:58:46.250Z,49.30
2023-04-11T17:00:49.274Z,49.31
2023-04-11T17:02:50.979Z,49.31
2023-04-11T17:04:52.949Z,49.30
2023-04-11T17:06:56.108Z,49.18
2023-04-11T17:08:57.798Z,49.54
2023-04-11T17:11:09.320Z,49.68
2023-04-11T17:13:11.956Z,49.72
2023-04-11T17:15:13.433Z,50.04
2023-04-11T17:17:14.990Z,50.13
2023-04-11T17:19:16.579Z,50.39
2023-04-11T17:21:18.141Z,50.10
2023-04-11T17:23:26.248Z,50.49
2023-04-11T17:25:33.571Z,50.52
2023-04-11T17:27:35.034Z,50.57
2023-04-11T17:29:36.790Z,50.53
2023-04-11T17:31:38.609Z,50.66
2023-04-11T17:33:40.306Z,50.70
2023-04-11T17:35:42.010Z,50.67
2023-04-11T17:37:43.516Z,50.96
2023-04-11T17:39:46.038Z,50.74
2023-04-11T17:41:48.073Z,50.73
2023-04-11T17:43:49.625Z,50.69
2023-04-11T17:45:51.192Z,50.90
2023-04-11T17:47:52.714Z,51.16
2023-04-11T17:49:54.998Z,51.46
2023-04-11T17:51:59.198Z,51.54
2023-04-11T17:54:01.255Z,51.92
2023-04-11T17:56:04.534Z,51.74
2023-04-11T17:58:06.144Z,52.02
2023-04-11T18:00:19.397Z,52.18
2023-04-11T18:02:21.012Z,52.20
2023-04-11T18:04:23.263Z,52.26
2023-04-11T18:06:28.015Z,52.49
2023-04-11T18:08:46.762Z,52.49
2023-04-11T18:10:51.679Z,52.86
2023-04-11T18:12:53.633Z,53.01
2023-04-11T18:14:56.872Z,53.25
2023-04-11T18:16:58.339Z,53.30
2023-04-11T18:18:59.872Z,53.50
2023-04-11T18:21:06.680Z,53.54
2023-04-11T18:23:08.900Z,53.72
2023-04-11T18:25:10.539Z,54.10
2023-04-11T18:27:12.313Z,53.99
2023-04-11T18:29:14.024Z,53.96
2023-04-11T18:31:15.667Z,54.24
2023-04-11T18:33:19.013Z,53.97
2023-04-11T18:35:23.585Z,54.06
2023-04-11T18:37:27.950Z,54.37
2023-04-11T18:39:29.545Z,54.67
2023-04-11T18:41:31.292Z,54.76
2023-04-11T18:43:32.946Z,54.78
2023-04-11T18:45:34.637Z,54.89
2023-04-11T18:47:36.465Z,54.89
2023-04-11T18:49:38.130Z,54.78
2023-04-11T18:51:39.738Z,55.16
2023-04-11T18:53:41.758Z,55.01
2023-04-11T18:55:43.254Z,55.17
2023-04-11T18:57:47.382Z,55.21
2023-04-11T18:59:51.101Z,55.50
2023-04-11T19:01:53.424Z,55.11
2023-04-11T19:03:57.016Z,55.10
2023-04-11T19:05:59.359Z,55.19
2023-04-11T19:08:01.060Z,54.99
2023-04-11T19:10:02.545Z,55.23
2023-04-11T19:12:04.325Z,55.00
2023-04-11T19:14:06.266Z,55.21
2023-04-11T19:16:07.813Z,55.36
2023-04-11T19:18:17.007Z,55.45
2023-04-11T19:20:20.213Z,55.49
2023-04-11T19:22:21.750Z,55.43
2023-04-11T19:24:23.278Z,55.64
2023-04-11T19:26:28.427Z,55.48
2023-04-11T19:28:29.995Z,55.71
2023-04-11T19:30:31.874Z,55.60
2023-04-11T19:32:36.119Z,56.01
2023-04-11T19:34:37.747Z,55.75
2023-04-11T19:36:39.264Z,55.99
2023-04-11T19:38:41.018Z,56.05
2023-04-11T19:40:42.676Z,56.06
2023-04-11T19:42:44.580Z,56.32
2023-04-11T19:44:46.101Z,56.48
2023-04-11T19:46:47.606Z,56.44
2023-04-11T19:48:49.167Z,56.52
2023-04-11T19:50:51.501Z,56.82
2023-04-11T19:52:54.414Z,57.13
2023-04-11T19:54:56.615Z,57.03
2023-04-11T19:56:58.323Z,57.59
2023-04-11T19:58:59.883Z,57.46
2023-04-11T20:01:01.891Z,57.32
2023-04-11T20:03:05.916Z,57.18
2023-04-11T20:05:08.700Z,57.56
2023-04-11T20:07:10.402Z,57.47
2023-04-11T20:09:11.998Z,57.11
2023-04-11T20:11:16.503Z,57.16
2023-04-11T20:13:18.060Z,57.44
2023-04-11T20:15:19.524Z,57.88
2023-04-11T20:17:21.073Z,57.73
2023-04-11T20:19:27.616Z,57.91
2023-04-11T20:21:29.087Z,57.93
2023-04-11T20:23:33.558Z,57.93
2023-04-11T20:25:35.034Z,57.80
2023-04-11T20:27:36.863Z,57.46
2023-04-11T20:29:38.457Z,57.66
2023-04-11T20:31:39.976Z,57.95
2023-04-11T20:33:41.537Z,57.73
2023-04-11T20:35:43.274Z,57.58
2023-04-11T20:37:44.952Z,57.53
2023-04-11T20:39:46.431Z,57.77
2023-04-11T20:41:49.875Z,57.25
2023-04-11T20:43:52.146Z,57.57
2023-04-11T20:45:53.849Z,57.67
2023-04-11T20:47:56.380Z,58.06
2023-04-11T20:50:04.136Z,57.99
2023-04-11T20:52:05.734Z,58.34
2023-04-11T20:54:07.329Z,58.42
2023-04-11T20:56:08.847Z,58.55
2023-04-11T20:58:11.954Z,58.49
2023-04-11T21:00:17.760Z,58.29
2023-04-11T21:02:19.436Z,58.59
2023-04-11T21:04:22.159Z,58.60
2023-04-11T21:06:23.820Z,58.36
2023-04-11T21:08:25.308Z,58.75
2023-04-11T21:10:26.867Z,58.36
2023-04-11T21:12:28.449Z,58.67
2023-04-11T21:14:32.932Z,58.66
2023-04-11T21:16:34.438Z,59.14
2023-04-11T21:18:35.936Z,58.74
2023-04-11T21:20:39.009Z,58.74
2023-04-11T21:22:40.480Z,59.12
2023-04-11T21:24:41.993Z,59.09
2023-04-11T21:26:43.663Z,58.89
2023-04-11T21:28:45.104Z,58.61
2023-04-11T21:30:46.675Z,59.30
2023-04-11T21:32:48.203Z,59.10
2023-04-11T21:34:49.721Z,59.50
2023-04-11T21:36:51.298Z,59.45
2023-04-11T21:38:52.866Z,59.30
2023-04-11T21:40:54.361Z,59.45
2023-04-11T21:42:56.126Z,59.41
2023-04-11T21:44:57.707Z,58.95
2023-04-11T21:46:59.770Z,58.70
2023-04-11T21:49:01.304Z,59.08
2023-04-11T21:51:03.598Z,58.88
2023-04-11T21:53:05.418Z,59.34
2023-04-11T21:55:08.841Z,59.25
2023-04-11T21:57:11.267Z,59.71
2023-04-11T21:59:12.783Z,60.15
2023-04-11T22:01:15.413Z,59.61
2023-04-11T22:03:20.032Z,59.57
2023-04-11T22:05:22.019Z,59.82
2023-04-11T22:07:26.543Z,59.86
2023-04-11T22:09:28.096Z,59.41
2023-04-11T22:11:29.767Z,59.92
2023-04-11T22:13:31.377Z,59.29
2023-04-11T22:15:33.349Z,59.81
2023-04-11T22:17:34.923Z,59.39
2023-04-11T22:19:36.432Z,60.25
2023-04-11T22:21:38.440Z,59.85
2023-04-11T22:23:42.853Z,59.48
2023-04-11T22:25:44.337Z,59.87
2023-04-11T22:27:45.815Z,59.83
2023-04-11T22:29:47.408Z,59.71
2023-04-11T22:31:50.399Z,59.87
2023-04-11T22:33:52.088Z,59.86
2023-04-11T22:35:53.622Z,59.98
2023-04-11T22:37:59.206Z,59.99
2023-04-11T22:40:00.846Z,59.59
2023-04-11T22:42:02.384Z,60.42
2023-04-11T22:44:04.075Z,60.59
2023-04-11T22:46:05.776Z,60.22
2023-04-11T22:48:07.394Z,60.82
2023-04-11T22:50:10.149Z,61.08
2023-04-11T22:52:15.080Z,61.24
2023-04-11T22:54:16.708Z,60.99
2023-04-11T22:58:37.926Z,61.58
2023-04-11T23:00:39.615Z,61.05
2023-04-11T23:02:41.218Z,61.45
2023-04-11T23:04:42.909Z,61.55
2023-04-11T23:06:44.622Z,61.69
2023-04-11T23:08:46.663Z,62.01
2023-04-11T23:10:48.159Z,61.42
2023-04-11T23:12:49.755Z,61.92
2023-04-11T23:14:53.242Z,61.61
2023-04-11T23:16:54.804Z,61.69
2023-04-11T23:18:56.334Z,61.76
2023-04-11T23:20:58.265Z,61.97
2023-04-11T23:22:59.781Z,61.84
2023-04-11T23:25:01.360Z,61.46
2023-04-11T23:27:02.867Z,62.04
2023-04-11T23:29:04.488Z,61.38
2023-04-11T23:31:06.259Z,62.05
2023-04-11T23:33:09.001Z,61.53
2023-04-11T23:35:10.956Z,61.87
2023-04-11T23:37:12.966Z,61.80
2023-04-11T23:39:14.722Z,61.43
2023-04-11T23:41:16.225Z,61.96
2023-04-11T23:43:17.756Z,61.68
2023-04-11T23:45:22.586Z,61.02
2023-04-11T23:47:24.138Z,61.28
2023-04-11T23:49:25.851Z,61.08
2023-04-11T23:51:27.354Z,61.25
2023-04-11T23:53:28.825Z,61.12
2023-04-11T23:55:32.253Z,61.41
2023-04-11T23:57:33.781Z,61.20
2023-04-11T23:59:36.208Z,61.33
